Time;durP1;ratioP1;P1;durP2;ratioP2;P2;SDS_P1;SDS_P2;PMS_P1;PMS_P2;Temp;Humidity;BMP_temperature;BMP_pressure;BME280_temperature;BME280_humidity;BME280_pressure;Samples;Min_cycle;Max_cycle;Signal;HPM_P1;HPM_P2
2022/09/07 00:01:21;;;;;;;;;;;;;;;20.61;68.96;100568.31;5425046;32;33412;-78
2022/09/07 00:04:23;;;;;;;;;;;;;;;20.19;70.34;100567.09;5434423;32;33522;-76
2022/09/07 00:07:25;;;;;;;;;;;;;;;20.10;70.89;100563.31;5422861;32;33660;-69
2022/09/07 00:10:27;;;;;;;;;;;;;;;19.78;72.89;100565.75;5438176;32;34174;-76
2022/09/07 00:13:30;;;;;;;;;;;;;;;20.26;70.83;100571.00;5414480;32;33621;-69
2022/09/07 00:16:32;;;;;;;;;;;;;;;19.99;71.51;100571.28;5430599;32;34181;-71
2022/09/07 00:19:34;;;;;;;;;;;;;;;19.86;72.36;100560.69;5422830;32;33804;-69
2022/09/07 00:22:36;;;;;;;;;;;;;;;19.95;72.00;100564.47;5422922;32;34523;-70
2022/09/07 00:25:39;;;;;;;;;;;;;;;19.47;74.93;100559.97;5422981;32;33423;-75
2022/09/07 00:28:41;;;;;;;;;;;;;;;20.07;72.60;100552.03;5422268;32;34107;-69
2022/09/07 00:31:43;;;;;;;;;;;;;;;20.54;69.57;100551.94;5419589;32;33638;-78
2022/09/07 00:34:45;;;;;;;;;;;;;;;20.36;70.01;100541.78;5415665;32;33623;-79
2022/09/07 00:37:46;;;;;;;;;;;;;;;20.32;70.99;100551.00;5435764;32;33619;-76
2022/09/07 00:40:48;;;;;;;;;;;;;;;19.87;72.73;100553.53;5420547;32;44674;-69
2022/09/07 00:43:54;;;;;;;;;;;;;;;19.97;72.24;100551.88;5421106;32;33509;-69
2022/09/07 00:46:56;;;;;;;;;;;;;;;19.71;72.90;100544.03;5440607;32;33331;-77
2022/09/07 00:49:59;;;;;;;;;;;;;;;19.90;72.98;100551.50;5421115;32;33713;-79
2022/09/07 00:53:05;;;;;;;;;;;;;;;20.09;71.92;100550.06;5428374;32;33639;-79
2022/09/07 00:56:07;;;;;;;;;;;;;;;19.74;73.47;100551.78;5402455;32;33454;-79
2022/09/07 00:59:09;;;;;;;;;;;;;;;19.59;73.89;100555.59;5419725;32;33784;-76
2022/09/07 01:02:11;;;;;;;;;;;;;;;19.57;74.29;100546.81;5422810;32;33954;-75
2022/09/07 01:05:18;;;;;;;;;;;;;;;19.48;74.48;100550.16;5422086;32;33709;-69
2022/09/07 01:08:19;;;;;;;;;;;;;;;19.96;72.07;100551.00;5437950;32;44726;-79
2022/09/07 01:11:22;;;;;;;;;;;;;;;20.22;71.17;100541.03;5406227;32;34090;-70
2022/09/07 01:14:25;;;;;;;;;;;;;;;19.65;73.32;100539.16;5423910;32;34059;-80
2022/09/07 01:17:36;;;;;;;;;;;;;;;20.13;71.41;100541.72;5423597;32;33560;-71
2022/09/07 01:20:56;;;;;;;;;;;;;;;19.43;74.36;100539.84;5422787;32;33903;-79
2022/09/07 01:24:18;;;;;;;;;;;;;;;19.48;74.86;100548.34;5418048;32;32707;-77
2022/09/07 01:27:20;;;;;;;;;;;;;;;19.45;75.15;100545.06;5407148;32;44656;-70
2022/09/07 01:30:22;;;;;;;;;;;;;;;19.94;72.27;100526.28;5434448;32;33667;-79
2022/09/07 01:33:43;;;;;;;;;;;;;;;20.41;70.72;100539.59;5404479;32;32858;-70
2022/09/07 01:36:48;;;;;;;;;;;;;;;19.78;72.91;100546.22;5425239;32;33541;-79
2022/09/07 01:40:06;;;;;;;;;;;;;;;20.39;69.72;100544.22;5432632;32;44326;-80
2022/09/07 01:43:10;;;;;;;;;;;;;;;19.89;72.37;100535.59;5409696;32;33651;-80
2022/09/07 01:46:14;;;;;;;;;;;;;;;20.32;70.88;100525.16;5424585;32;34113;-70
2022/09/07 01:49:18;;;;;;;;;;;;;;;19.98;72.11;100524.25;5420473;32;32971;-69
2022/09/07 01:52:20;;;;;;;;;;;;;;;19.65;73.21;100515.16;5416596;32;44574;-70
2022/09/07 01:55:35;;;;;;;;;;;;;;;19.19;75.88;100522.97;5413201;32;34756;-79
2022/09/07 01:58:44;;;;;;;;;;;;;;;19.02;76.25;100523.38;5403497;32;33742;-76
2022/09/07 02:01:48;;;;;;;;;;;;;;;19.86;72.95;100514.50;5425816;32;33140;-79
2022/09/07 02:05:09;;;;;;;;;;;;;;;19.06;76.26;100533.66;5421843;32;45768;-79
2022/09/07 02:08:12;;;;;;;;;;;;;;;19.31;75.30;100522.06;5436657;32;32860;-79
2022/09/07 02:11:19;;;;;;;;;;;;;;;19.19;75.13;100522.97;5434024;32;33305;-76
2022/09/07 02:14:22;;;;;;;;;;;;;;;19.11;76.11;100526.19;5421197;32;44459;-70
2022/09/07 02:17:27;;;;;;;;;;;;;;;18.99;75.93;100535.06;5429423;32;34357;-77
2022/09/07 02:20:33;;;;;;;;;;;;;;;19.00;75.88;100525.25;5409430;32;33025;-70
2022/09/07 02:23:43;;;;;;;;;;;;;;;19.33;74.67;100522.84;5438399;32;34141;-78
2022/09/07 02:26:47;;;;;;;;;;;;;;;19.46;73.39;100526.28;5403249;32;33308;-79
2022/09/07 02:29:50;;;;;;;;;;;;;;;19.08;74.93;100517.59;5407875;32;44250;-69
2022/09/07 02:32:55;;;;;;;;;;;;;;;19.40;73.88;100510.75;5438377;32;33924;-76
2022/09/07 02:35:57;;;;;;;;;;;;;;;19.12;75.81;100511.06;5414122;32;33398;-78
2022/09/07 02:38:58;;;;;;;;;;;;;;;19.17;74.42;100503.59;5422663;32;33555;-69
2022/09/07 02:42:00;;;;;;;;;;;;;;;19.60;72.49;100503.12;5407853;32;33826;-70
2022/09/07 02:45:03;;;;;;;;;;;;;;;20.00;71.09;100504.47;5424507;32;33674;-70
2022/09/07 02:48:10;;;;;;;;;;;;;;;19.41;73.34;100507.13;5420711;32;33799;-69
2022/09/07 02:51:31;;;;;;;;;;;;;;;19.38;73.28;100502.00;5421128;32;33467;-79
2022/09/07 02:54:42;;;;;;;;;;;;;;;19.96;70.93;100494.13;5430606;32;33185;-76
2022/09/07 02:57:46;;;;;;;;;;;;;;;19.15;73.90;100501.03;5409931;32;35972;-75
2022/09/07 03:00:51;;;;;;;;;;;;;;;19.31;73.19;100500.75;5424531;32;47042;-69
2022/09/07 03:03:59;;;;;;;;;;;;;;;19.32;74.05;100501.59;5406114;32;32969;-70
2022/09/07 03:07:18;;;;;;;;;;;;;;;19.20;74.69;100498.06;5426193;32;33273;-79
2022/09/07 03:10:19;;;;;;;;;;;;;;;19.10;75.42;100489.03;5435861;32;45283;-70
2022/09/07 03:13:25;;;;;;;;;;;;;;;19.34;73.15;100487.22;5432355;32;34004;-78
2022/09/07 03:16:27;;;;;;;;;;;;;;;19.25;73.25;100492.38;5440932;32;34912;-78
2022/09/07 03:19:29;;;;;;;;;;;;;;;18.97;74.34;100491.72;5424329;32;33794;-68
2022/09/07 03:22:34;;;;;;;;;;;;;;;18.58;76.97;100498.91;5433857;32;33604;-79
2022/09/07 03:25:36;;;;;;;;;;;;;;;18.97;75.20;100497.03;5412291;32;33247;-69
2022/09/07 03:28:38;;;;;;;;;;;;;;;18.71;75.91;100490.09;5423418;32;32768;-79
2022/09/07 03:31:39;;;;;;;;;;;;;;;19.44;72.60;100490.88;5438580;32;33033;-76
2022/09/07 03:34:41;;;;;;;;;;;;;;;19.51;72.22;100490.44;5426976;32;32947;-70
2022/09/07 03:37:43;;;;;;;;;;;;;;;20.02;69.84;100496.34;5422626;32;33156;-76
2022/09/07 03:40:45;;;;;;;;;;;;;;;19.79;70.38;100487.44;5411885;32;34625;-69
2022/09/07 03:43:47;;;;;;;;;;;;;;;19.34;73.05;100500.53;5419416;32;34920;-79
2022/09/07 03:46:49;;;;;;;;;;;;;;;19.29;72.60;100492.03;5432726;32;33451;-70
2022/09/07 03:49:51;;;;;;;;;;;;;;;18.95;73.20;100488.31;5407329;32;33628;-69
2022/09/07 03:52:53;;;;;;;;;;;;;;;18.63;75.96;100511.91;5432914;32;33140;-77
2022/09/07 03:55:55;;;;;;;;;;;;;;;18.74;74.89;100511.16;5400074;32;33721;-69
2022/09/07 03:58:57;;;;;;;;;;;;;;;19.27;71.90;100511.78;5433416;32;34937;-78
2022/09/07 04:01:59;;;;;;;;;;;;;;;19.16;72.95;100508.06;5410621;32;33689;-69
2022/09/07 04:05:01;;;;;;;;;;;;;;;18.53;75.55;100514.34;5409253;32;33400;-78
2022/09/07 04:08:03;;;;;;;;;;;;;;;18.52;75.92;100520.62;5412121;32;34013;-79
2022/09/07 04:11:06;;;;;;;;;;;;;;;19.10;72.83;100523.66;5413370;32;32961;-70
2022/09/07 04:14:08;;;;;;;;;;;;;;;19.26;72.36;100521.59;5421661;32;34059;-69
2022/09/07 04:17:10;;;;;;;;;;;;;;;18.61;74.78;100535.09;5417504;32;33440;-70
2022/09/07 04:20:12;;;;;;;;;;;;;;;18.94;73.44;100530.09;5434362;32;33682;-79
2022/09/07 04:23:14;;;;;;;;;;;;;;;18.86;74.26;100535.09;5421298;32;33421;-70
2022/09/07 04:26:17;;;;;;;;;;;;;;;19.23;71.92;100529.78;5415690;32;32950;-69
2022/09/07 04:29:19;;;;;;;;;;;;;;;18.85;73.68;100535.22;5419476;32;46203;-78
2022/09/07 04:32:22;;;;;;;;;;;;;;;18.40;75.68;100525.00;5405463;32;33113;-68
2022/09/07 04:35:23;;;;;;;;;;;;;;;18.58;75.33;100530.84;5438114;32;33487;-79
2022/09/07 04:38:26;;;;;;;;;;;;;;;19.24;72.13;100518.16;5420724;32;33563;-80
2022/09/07 04:41:29;;;;;;;;;;;;;;;19.06;72.92;100530.16;5437486;32;33615;-72
2022/09/07 04:44:30;;;;;;;;;;;;;;;19.02;72.65;100539.34;5425403;32;34107;-70
2022/09/07 04:47:32;;;;;;;;;;;;;;;19.35;71.78;100530.72;5426506;32;34050;-79
2022/09/07 04:50:34;;;;;;;;;;;;;;;19.25;72.05;100537.66;5434991;32;34724;-80
2022/09/07 04:53:36;;;;;;;;;;;;;;;19.39;71.22;100534.88;5403347;32;32906;-71
2022/09/07 04:56:38;;;;;;;;;;;;;;;19.47;69.90;100532.47;5401677;32;32892;-69
2022/09/07 04:59:40;;;;;;;;;;;;;;;19.94;68.04;100541.44;5406999;32;33550;-68
2022/09/07 05:02:42;;;;;;;;;;;;;;;19.52;69.48;100538.31;5435360;32;33184;-69
2022/09/07 05:05:44;;;;;;;;;;;;;;;20.09;67.05;100534.06;5406858;32;33646;-81
2022/09/07 05:08:47;;;;;;;;;;;;;;;20.30;65.08;100537.78;5423737;32;33708;-78
2022/09/07 05:11:49;;;;;;;;;;;;;;;20.50;65.03;100529.09;5438939;32;44796;-84
2022/09/07 05:14:51;;;;;;;;;;;;;;;20.87;62.54;100542.22;5409829;32;33258;-82
2022/09/07 05:17:53;;;;;;;;;;;;;;;21.59;60.25;100545.28;5440098;32;33353;-76
2022/09/07 05:20:55;;;;;;;;;;;;;;;21.57;59.75;100549.88;5419776;32;33044;-76
2022/09/07 05:23:57;;;;;;;;;;;;;;;22.37;57.51;100545.87;5420088;32;33979;-68
2022/09/07 05:27:00;;;;;;;;;;;;;;;22.04;57.54;100542.41;5402248;32;34255;-72
2022/09/07 05:30:02;;;;;;;;;;;;;;;21.72;58.71;100547.78;5420276;32;33538;-70
2022/09/07 05:33:09;;;;;;;;;;;;;;;22.26;57.47;100543.28;5434611;32;34539;-78
2022/09/07 05:36:11;;;;;;;;;;;;;;;23.10;55.11;100541.31;5408590;32;34240;-82
2022/09/07 05:39:13;;;;;;;;;;;;;;;23.27;54.33;100545.16;5430804;32;32968;-82
2022/09/07 05:42:15;;;;;;;;;;;;;;;23.71;52.49;100543.84;5420595;32;33398;-83
2022/09/07 05:45:17;;;;;;;;;;;;;;;23.86;51.86;100546.94;5432747;32;45250;-73
2022/09/07 05:48:19;;;;;;;;;;;;;;;23.82;51.64;100549.06;5418389;32;33064;-68
2022/09/07 05:51:21;;;;;;;;;;;;;;;23.62;52.29;100550.03;5415306;32;34330;-76
2022/09/07 05:54:24;;;;;;;;;;;;;;;24.66;49.70;100554.59;5427445;32;34317;-79
2022/09/07 05:57:27;;;;;;;;;;;;;;;23.98;50.77;100561.94;5395339;32;32959;-76
2022/09/07 06:00:30;;;;;;;;;;;;;;;24.03;50.93;100563.19;5424013;32;33060;-77
2022/09/07 06:03:33;;;;;;;;;;;;;;;25.56;46.86;100561.09;5406595;32;33130;-71
2022/09/07 06:06:37;;;;;;;;;;;;;;;24.84;47.86;100558.22;5430568;32;33040;-71
2022/09/07 06:09:39;;;;;;;;;;;;;;;24.71;48.43;100551.47;5414172;32;33004;-70
2022/09/07 06:13:02;;;;;;;;;;;;;;;25.21;47.72;100553.84;5411752;32;33439;-87
2022/09/07 06:16:04;;;;;;;;;;;;;;;24.79;47.83;100551.59;5427427;32;32940;-80
2022/09/07 06:19:07;;;;;;;;;;;;;;;25.01;46.93;100548.53;5410298;32;33091;-76
2022/09/07 06:22:09;;;;;;;;;;;;;;;25.89;44.98;100552.41;5418609;32;33967;-78
2022/09/07 06:25:11;;;;;;;;;;;;;;;26.09;44.20;100539.59;5412965;32;35207;-80
2022/09/07 06:28:13;;;;;;;;;;;;;;;26.97;41.79;100553.78;5398783;32;32746;-72
2022/09/07 06:31:16;;;;;;;;;;;;;;;26.14;43.83;100549.88;5426261;32;33278;-71
2022/09/07 06:34:18;;;;;;;;;;;;;;;25.86;45.08;100554.53;5391758;32;45715;-77
2022/09/07 06:37:20;;;;;;;;;;;;;;;26.16;43.62;100547.91;5430620;32;32574;-77
2022/09/07 06:40:22;;;;;;;;;;;;;;;27.03;41.59;100541.50;5416227;32;32966;-72
2022/09/07 06:43:24;;;;;;;;;;;;;;;27.18;41.41;100539.94;5429121;32;34325;-83
2022/09/07 06:46:26;;;;;;;;;;;;;;;28.39;38.71;100529.41;5415685;32;35754;-80
2022/09/07 06:49:48;;;;;;;;;;;;;;;26.96;42.13;100543.16;5410903;32;45127;-73
2022/09/07 06:52:50;;;;;;;;;;;;;;;27.92;39.94;100538.22;5427679;32;33501;-82
2022/09/07 06:56:16;;;;;;;;;;;;;;;28.04;39.69;100528.75;5401200;32;34127;-78
2022/09/07 06:59:18;;;;;;;;;;;;;;;27.73;40.27;100536.69;5424198;32;44515;-81
2022/09/07 07:02:20;;;;;;;;;;;;;;;26.65;42.68;100540.16;5416317;32;34753;-69
2022/09/07 07:05:23;;;;;;;;;;;;;;;26.47;42.32;100542.94;5419764;32;33029;-73
2022/09/07 07:08:25;;;;;;;;;;;;;;;28.83;38.03;100535.22;5404987;32;33177;-70
2022/09/07 07:11:27;;;;;;;;;;;;;;;28.14;38.89;100535.84;5411986;32;34893;-80
2022/09/07 07:14:29;;;;;;;;;;;;;;;29.24;36.72;100545.91;5433538;32;32812;-72
2022/09/07 07:17:35;;;;;;;;;;;;;;;28.49;37.63;100538.19;5405281;32;32924;-71
2022/09/07 07:20:38;;;;;;;;;;;;;;;28.86;37.40;100531.34;5431898;32;33074;-78
2022/09/07 07:23:40;;;;;;;;;;;;;;;28.12;38.75;100535.19;5406636;32;34047;-77
2022/09/07 07:26:47;;;;;;;;;;;;;;;27.67;40.27;100539.19;5392967;32;32797;-68
2022/09/07 07:29:49;;;;;;;;;;;;;;;28.31;38.86;100540.25;5440810;32;45018;-70
2022/09/07 07:32:51;;;;;;;;;;;;;;;27.69;39.56;100540.72;5418047;32;32862;-69
2022/09/07 07:35:53;;;;;;;;;;;;;;;27.97;39.21;100529.63;5421665;32;32811;-69
2022/09/07 07:38:55;;;;;;;;;;;;;;;30.56;34.41;100541.16;5406214;32;32990;-81
2022/09/07 07:42:02;;;;;;;;;;;;;;;30.96;33.49;100534.44;5432065;32;35069;-87
2022/09/07 07:45:07;;;;;;;;;;;;;;;29.37;36.33;100537.22;5412906;32;33254;-79
2022/09/07 07:48:30;;;;;;;;;;;;;;;27.44;40.26;100537.12;5416073;32;34526;-71
2022/09/07 07:51:32;;;;;;;;;;;;;;;28.88;37.23;100538.25;5427352;32;34276;-77
2022/09/07 07:54:54;;;;;;;;;;;;;;;29.76;36.13;100529.00;5407614;32;44647;-80
2022/09/07 07:57:56;;;;;;;;;;;;;;;30.02;34.98;100527.78;5414861;32;34493;-71
2022/09/07 08:01:02;;;;;;;;;;;;;;;29.83;35.62;100529.13;5369073;32;32913;-69
2022/09/07 08:04:04;;;;;;;;;;;;;;;29.72;35.70;100529.53;5354622;32;33445;-72
2022/09/07 08:07:06;;;;;;;;;;;;;;;30.72;34.35;100520.16;5382049;32;34148;-77
2022/09/07 08:10:11;;;;;;;;;;;;;;;30.02;34.42;100520.50;5357310;32;33021;-81
2022/09/07 08:13:17;;;;;;;;;;;;;;;30.45;34.20;100527.03;5374930;32;33274;-80
2022/09/07 08:16:20;;;;;;;;;;;;;;;30.84;33.32;100520.50;5365483;32;43157;-73
2022/09/07 08:19:22;;;;;;;;;;;;;;;30.35;34.07;100522.91;5375363;32;31725;-71
2022/09/07 08:22:23;;;;;;;;;;;;;;;32.08;30.88;100516.69;5372689;32;34600;-76
2022/09/07 08:25:27;;;;;;;;;;;;;;;31.68;31.61;100517.31;5372122;32;34447;-75
2022/09/07 08:28:30;;;;;;;;;;;;;;;33.12;29.59;100521.31;5373112;32;34566;-82
2022/09/07 08:31:32;;;;;;;;;;;;;;;32.28;30.61;100511.41;5350843;32;33204;-76
2022/09/07 08:34:34;;;;;;;;;;;;;;;31.29;32.15;100518.59;5385665;32;34455;-74
2022/09/07 08:37:36;;;;;;;;;;;;;;;29.86;34.54;100517.91;5372510;32;33656;-76
2022/09/07 08:40:38;;;;;;;;;;;;;;;31.68;31.44;100504.56;5356644;32;32871;-73
2022/09/07 08:43:40;;;;;;;;;;;;;;;31.80;31.22;100504.94;5370397;32;33620;-79
2022/09/07 08:46:46;;;;;;;;;;;;;;;33.14;29.39;100494.72;5364954;32;32844;-77
2022/09/07 08:49:52;;;;;;;;;;;;;;;33.91;28.32;100499.72;5380025;32;43595;-79
2022/09/07 08:53:06;;;;;;;;;;;;;;;33.44;29.09;100492.53;5361138;32;33801;-75
2022/09/07 08:56:15;;;;;;;;;;;;;;;34.05;27.43;100492.38;5357563;32;32935;-80
2022/09/07 08:59:24;;;;;;;;;;;;;;;31.87;31.40;100496.84;5372012;32;34525;-82
2022/09/07 09:02:26;;;;;;;;;;;;;;;31.83;31.70;100492.84;5367420;32;46803;-71
2022/09/07 09:05:35;;;;;;;;;;;;;;;33.04;29.96;100486.09;5364571;32;33058;-74
2022/09/07 09:08:43;;;;;;;;;;;;;;;32.05;31.18;100483.59;5367181;32;34249;-70
2022/09/07 09:11:49;;;;;;;;;;;;;;;34.26;28.06;100482.28;5380766;32;33028;-76
2022/09/07 09:15:02;;;;;;;;;;;;;;;32.89;29.97;100475.38;5323916;32;963241;-69
2022/09/07 09:18:16;;;;;;;;;;;;;;;34.28;27.65;100475.56;5372563;32;34572;-69
2022/09/07 09:21:18;;;;;;;;;;;;;;;35.26;26.47;100484.47;5380252;32;46676;-68
2022/09/07 09:24:20;;;;;;;;;;;;;;;33.11;29.86;100481.53;5364070;32;32535;-72
2022/09/07 09:27:22;;;;;;;;;;;;;;;35.10;26.74;100478.69;5379237;32;32937;-73
2022/09/07 09:30:25;;;;;;;;;;;;;;;34.98;25.96;100487.59;5351810;32;34217;-75
2022/09/07 09:33:30;;;;;;;;;;;;;;;34.34;27.31;100487.53;5376541;32;33346;-78
2022/09/07 09:36:40;;;;;;;;;;;;;;;32.94;29.35;100480.19;5356950;32;33293;-79
2022/09/07 09:39:43;;;;;;;;;;;;;;;34.58;26.95;100469.62;5348397;32;32691;-74
2022/09/07 09:42:45;;;;;;;;;;;;;;;34.24;27.15;100473.47;5372863;32;34314;-71
2022/09/07 09:45:48;;;;;;;;;;;;;;;34.42;27.03;100469.06;5358444;32;42539;-81
2022/09/07 09:49:15;;;;;;;;;;;;;;;35.75;24.94;100471.16;5386137;32;33093;-76
2022/09/07 09:52:17;;;;;;;;;;;;;;;35.64;25.41;100463.66;5359845;32;34501;-81
2022/09/07 09:55:39;;;;;;;;;;;;;;;34.00;27.43;100450.44;5347999;32;32636;-76
2022/09/07 09:58:44;;;;;;;;;;;;;;;35.37;25.60;100450.16;5376275;32;32940;-79
2022/09/07 10:02:26;;;;;;;;;;;;;;;36.74;24.44;100447.44;5364854;32;33263;-78
2022/09/07 10:05:49;;;;;;;;;;;;;;;34.26;28.12;100453.09;5350942;32;34305;-74
2022/09/07 10:08:54;;;;;;;;;;;;;;;31.97;31.33;100451.97;5380277;32;33017;-74
2022/09/07 10:11:57;;;;;;;;;;;;;;;34.56;27.78;100442.56;5368408;32;33203;-73
2022/09/07 10:15:19;;;;;;;;;;;;;;;32.08;31.24;100448.72;5370328;32;31705;-74
2022/09/07 10:18:24;;;;;;;;;;;;;;;33.01;30.08;100451.13;5356193;32;44457;-76
2022/09/07 10:21:26;;;;;;;;;;;;;;;33.16;29.85;100449.06;5368623;32;31395;-72
2022/09/07 10:24:30;;;;;;;;;;;;;;;34.65;27.31;100441.28;5381418;32;33169;-74
2022/09/07 10:27:36;;;;;;;;;;;;;;;33.67;28.78;100427.56;5369642;32;33202;-71
2022/09/07 10:30:41;;;;;;;;;;;;;;;34.12;28.27;100426.91;5382723;32;34595;-71
2022/09/07 10:33:43;;;;;;;;;;;;;;;31.76;32.37;100436.53;5350732;32;33325;-75
2022/09/07 10:37:07;;;;;;;;;;;;;;;31.60;32.39;100434.09;5379660;32;33420;-75
2022/09/07 10:40:11;;;;;;;;;;;;;;;32.47;31.29;100435.59;5361065;32;33159;-69
2022/09/07 10:43:17;;;;;;;;;;;;;;;31.66;31.82;100433.31;5361064;32;33044;-68
2022/09/07 10:46:26;;;;;;;;;;;;;;;32.96;29.86;100419.06;5384040;32;43506;-70
2022/09/07 10:50:03;;;;;;;;;;;;;;;31.36;32.32;100423.63;5367579;32;44734;-78
2022/09/07 10:53:25;;;;;;;;;;;;;;;31.57;32.23;100420.06;5352690;32;44918;-79
2022/09/07 10:57:02;;;;;;;;;;;;;;;30.90;33.22;100422.06;5350247;32;43573;-71
2022/09/07 11:00:11;;;;;;;;;;;;;;;30.22;34.32;100419.72;5358924;32;34599;-71
2022/09/07 11:03:17;;;;;;;;;;;;;;;30.93;33.28;100420.88;5386281;32;34140;-69
2022/09/07 11:06:34;;;;;;;;;;;;;;;31.02;32.76;100417.81;5354424;32;34851;-68
2022/09/07 11:09:40;;;;;;;;;;;;;;;30.79;33.64;100425.31;5347701;32;33004;-68
2022/09/07 11:12:42;;;;;;;;;;;;;;;30.44;33.73;100424.19;5380546;32;34009;-68
2022/09/07 11:15:45;;;;;;;;;;;;;;;30.15;34.16;100419.63;5365698;32;33196;-75
2022/09/07 11:18:53;;;;;;;;;;;;;;;30.22;34.27;100414.28;5375376;32;44605;-78
2022/09/07 11:22:15;;;;;;;;;;;;;;;30.74;33.41;100409.59;5367681;32;34740;-76
2022/09/07 11:25:22;;;;;;;;;;;;;;;31.29;32.88;100409.97;5351779;32;33762;-73
2022/09/07 11:28:44;;;;;;;;;;;;;;;32.42;30.93;100394.56;5377025;32;32762;-72
2022/09/07 11:31:47;;;;;;;;;;;;;;;32.32;30.99;100398.44;5370565;32;35006;-77
2022/09/07 11:34:54;;;;;;;;;;;;;;;32.06;31.46;100387.41;5360783;32;44692;-72
2022/09/07 11:38:02;;;;;;;;;;;;;;;33.52;28.84;100388.78;5365733;32;32881;-72
2022/09/07 11:41:23;;;;;;;;;;;;;;;34.38;27.20;100393.28;5350587;32;33688;-78
2022/09/07 11:44:29;;;;;;;;;;;;;;;35.58;25.05;100369.72;5375451;32;44242;-74
2022/09/07 11:47:37;;;;;;;;;;;;;;;34.19;26.26;100375.91;5352382;32;34178;-68
2022/09/07 11:50:41;;;;;;;;;;;;;;;34.04;26.74;100375.34;5364124;32;36039;-86
2022/09/07 11:53:45;;;;;;;;;;;;;;;32.92;27.92;100378.88;5360659;32;33754;-75
2022/09/07 11:56:49;;;;;;;;;;;;;;;32.27;29.17;100372.91;5339774;32;33591;-76
2022/09/07 12:00:11;;;;;;;;;;;;;;;32.47;28.72;100368.44;5362286;32;44475;-80
2022/09/07 12:03:25;;;;;;;;;;;;;;;32.48;28.69;100377.44;5360523;32;33746;-80
2022/09/07 12:06:39;;;;;;;;;;;;;;;31.75;30.49;100368.78;5391316;32;30948;-83
2022/09/07 12:09:59;;;;;;;;;;;;;;;32.33;28.96;100372.97;5369280;32;33017;-80
2022/09/07 12:13:07;;;;;;;;;;;;;;;31.32;30.61;100368.87;5371330;32;33166;-75
2022/09/07 12:16:09;;;;;;;;;;;;;;;33.36;28.14;100357.34;5371648;32;33044;-76
2022/09/07 12:19:18;;;;;;;;;;;;;;;36.40;22.54;100350.38;5370025;32;34454;-76
2022/09/07 12:22:21;;;;;;;;;;;;;;;34.88;25.31;100347.91;5385194;32;44694;-75
2022/09/07 12:25:24;;;;;;;;;;;;;;;36.89;22.82;100349.28;5363319;32;33297;-76
2022/09/07 12:28:32;;;;;;;;;;;;;;;37.66;20.91;100349.31;5373810;32;32920;-76
2022/09/07 12:31:54;;;;;;;;;;;;;;;36.46;22.06;100350.31;5372937;32;34833;-79
2022/09/07 12:35:27;;;;;;;;;;;;;;;34.92;24.30;100346.47;5346518;32;32868;-69
2022/09/07 12:38:28;;;;;;;;;;;;;;;34.89;24.76;100346.03;5367078;32;33304;-68
2022/09/07 12:41:41;;;;;;;;;;;;;;;33.08;27.29;100364.84;5363082;32;33145;-72
2022/09/07 12:44:43;;;;;;;;;;;;;;;33.36;26.47;100357.34;5371426;32;32843;-73
2022/09/07 12:47:44;;;;;;;;;;;;;;;31.93;29.23;100354.72;5376260;32;33841;-75
2022/09/07 12:51:05;;;;;;;;;;;;;;;32.47;28.73;100356.72;5352834;32;34715;-70
2022/09/07 12:54:26;;;;;;;;;;;;;;;32.36;29.08;100352.69;5379328;32;32723;-70
2022/09/07 12:57:37;;;;;;;;;;;;;;;31.49;30.82;100345.84;5354278;32;32989;-75
2022/09/07 13:00:42;;;;;;;;;;;;;;;32.43;29.40;100339.94;5353585;32;36714;-75
2022/09/07 13:03:55;;;;;;;;;;;;;;;33.91;27.23;100327.12;5383256;32;33107;-71
2022/09/07 13:07:08;;;;;;;;;;;;;;;35.07;25.82;100331.66;5364988;32;35426;-70
2022/09/07 13:10:25;;;;;;;;;;;;;;;34.65;26.47;100329.38;5377234;32;33009;-78
2022/09/07 13:13:28;;;;;;;;;;;;;;;34.45;26.32;100332.19;5348595;32;44272;-76
2022/09/07 13:17:10;;;;;;;;;;;;;;;33.30;28.04;100328.22;5369830;32;45509;-77
2022/09/07 13:20:22;;;;;;;;;;;;;;;33.46;27.92;100329.69;5387174;32;43016;-72
2022/09/07 13:23:25;;;;;;;;;;;;;;;31.77;30.94;100320.53;5366613;32;33727;-77
2022/09/07 13:26:45;;;;;;;;;;;;;;;32.45;29.83;100310.66;5358537;32;33299;-83
2022/09/07 13:29:59;;;;;;;;;;;;;;;32.07;30.77;100313.84;5376024;32;44650;-76
2022/09/07 13:33:19;;;;;;;;;;;;;;;32.17;30.69;100308.03;5363716;32;33009;-73
2022/09/07 13:36:27;;;;;;;;;;;;;;;30.62;33.36;100315.31;5377981;32;44403;-81
2022/09/07 13:39:30;;;;;;;;;;;;;;;30.72;33.50;100313.12;5366437;32;32781;-68
2022/09/07 13:42:32;;;;;;;;;;;;;;;31.30;32.06;100308.50;5366225;32;34290;-70
2022/09/07 13:45:45;;;;;;;;;;;;;;;30.78;32.64;100311.53;5369952;32;34755;-76
2022/09/07 13:48:49;;;;;;;;;;;;;;;31.31;31.87;100307.47;5362915;32;42742;-82
2022/09/07 13:51:53;;;;;;;;;;;;;;;30.89;32.62;100292.88;5379951;32;33069;-75
2022/09/07 13:55:14;;;;;;;;;;;;;;;30.52;33.34;100299.31;5337342;32;31854;-79
2022/09/07 13:58:27;;;;;;;;;;;;;;;30.59;33.37;100294.84;5370992;32;33732;-74
2022/09/07 14:01:30;;;;;;;;;;;;;;;30.80;32.98;100276.91;5355337;32;34441;-72
2022/09/07 14:04:32;;;;;;;;;;;;;;;29.76;34.83;100287.94;5368022;32;33660;-91
2022/09/07 14:07:34;;;;;;;;;;;;;;;30.57;32.99;100277.91;5376245;32;34192;-71
2022/09/07 14:10:36;;;;;;;;;;;;;;;30.41;33.37;100279.00;5375366;32;34683;-75
2022/09/07 14:13:38;;;;;;;;;;;;;;;30.60;33.25;100282.13;5363869;32;34220;-77
2022/09/07 14:16:41;;;;;;;;;;;;;;;30.51;33.57;100272.41;5360802;32;31880;-71
2022/09/07 14:19:49;;;;;;;;;;;;;;;31.20;32.47;100275.38;5371885;32;34186;-71
2022/09/07 14:22:51;;;;;;;;;;;;;;;30.44;33.75;100275.88;5362589;32;46012;-69
2022/09/07 14:26:06;;;;;;;;;;;;;;;31.00;32.70;100275.22;5360460;32;33760;-78
2022/09/07 14:29:25;;;;;;;;;;;;;;;30.74;33.13;100273.94;5382930;32;46529;-79
2022/09/07 14:32:27;;;;;;;;;;;;;;;30.30;33.89;100281.34;5340623;32;33107;-76
2022/09/07 14:35:33;;;;;;;;;;;;;;;30.11;34.50;100278.22;5362683;32;33103;-77
2022/09/07 14:38:34;;;;;;;;;;;;;;;30.56;33.33;100265.38;5382968;32;33535;-72
2022/09/07 14:41:57;;;;;;;;;;;;;;;30.68;33.36;100279.31;5374274;32;45241;-75
2022/09/07 14:45:18;;;;;;;;;;;;;;;30.88;32.96;100272.19;5392466;32;33282;-74
2022/09/07 14:48:20;;;;;;;;;;;;;;;30.61;33.10;100264.81;5372851;32;44522;-74
2022/09/07 14:51:33;;;;;;;;;;;;;;;31.20;31.94;100268.09;5373530;32;34116;-74
2022/09/07 14:54:37;;;;;;;;;;;;;;;30.64;32.49;100265.25;5354814;32;33527;-74
2022/09/07 14:57:39;;;;;;;;;;;;;;;30.71;32.11;100268.88;5347014;32;35303;-74
2022/09/07 15:00:49;;;;;;;;;;;;;;;31.36;31.21;100263.41;5395151;32;33213;-74
2022/09/07 15:04:15;;;;;;;;;;;;;;;31.34;31.34;100260.91;5376241;32;33478;-73
2022/09/07 15:07:46;;;;;;;;;;;;;;;30.98;31.93;100263.75;5391831;32;33358;-72
2022/09/07 15:10:48;;;;;;;;;;;;;;;30.42;33.09;100272.53;5391454;32;34406;-73
2022/09/07 15:14:11;;;;;;;;;;;;;;;30.92;32.13;100265.34;5372835;32;34597;-74
2022/09/07 15:17:20;;;;;;;;;;;;;;;31.24;31.40;100265.84;5378164;32;32331;-75
2022/09/07 15:20:43;;;;;;;;;;;;;;;30.54;32.54;100266.63;5374032;32;33788;-71
2022/09/07 15:23:49;;;;;;;;;;;;;;;30.80;32.40;100263.34;5375868;32;32807;-75
2022/09/07 15:26:52;;;;;;;;;;;;;;;31.13;31.73;100259.06;5380001;32;45239;-73
2022/09/07 15:30:09;;;;;;;;;;;;;;;30.45;32.85;100260.44;5369094;32;34052;-75
2022/09/07 15:33:11;;;;;;;;;;;;;;;30.06;33.87;100255.38;5379002;32;33437;-73
2022/09/07 15:36:14;;;;;;;;;;;;;;;31.00;32.08;100251.63;5374078;32;34153;-72
2022/09/07 15:39:19;;;;;;;;;;;;;;;31.29;31.87;100252.50;5387747;32;33983;-72
2022/09/07 15:42:21;;;;;;;;;;;;;;;31.16;32.14;100255.94;5392693;32;45474;-72
2022/09/07 15:45:43;;;;;;;;;;;;;;;30.20;34.08;100262.66;5371832;32;33829;-74
2022/09/07 15:48:49;;;;;;;;;;;;;;;29.90;34.52;100270.00;5396755;32;34181;-74
2022/09/07 15:51:51;;;;;;;;;;;;;;;31.40;31.75;100260.09;5376902;32;44654;-73
2022/09/07 15:55:10;;;;;;;;;;;;;;;31.17;32.26;100256.75;5368191;32;33312;-73
2022/09/07 15:58:11;;;;;;;;;;;;;;;31.05;32.54;100264.63;5376898;32;34621;-74